EDT,Max TemperatureF,Mean TemperatureF,Min TemperatureF,Max Dew PointF,MeanDew PointF,Min DewpointF,Max Humidity, Mean Humidity, Min Humidity, Max Sea Level PressureIn, Mean Sea Level PressureIn, Min Sea Level PressureIn, Max VisibilityMiles, Mean VisibilityMiles, Min VisibilityMiles, Max Wind SpeedMPH, Mean Wind SpeedMPH, Max Gust SpeedMPH,PrecipitationIn, CloudCover, Events, WindDirDegrees
2013-5-1,73,66,60,64,60,57,94,84,64,30.27,30.19,30.12,10,8,2,15,9,24,0.04,7,Rain,29
2013-5-2,70,64,57,60,57,51,94,82,58,30.30,30.26,30.22,10,8,2,18,11,24,0.00,7,Rain,43
2013-5-3,69,62,54,55,51,43,94,75,58,30.22,30.19,30.17,10,10,6,24,11,29,0.00,5,,42
2013-5-4,66,58,51,59,53,48,100,84,60,30.14,30.10,30.05,10,8,2,20,11,25,0.03,7,Rain,32
2013-5-5,72,62,53,62,57,51,94,85,70,30.06,30.02,29.98,10,9,5,18,12,24,0.00,6,,55
2013-5-6,73,67,61,66,62,58,97,83,61,29.98,29.93,29.88,10,10,4,17,9,25,0.10,5,Rain,111
2013-5-7,72,63,54,58,53,48,100,80,44,29.99,29.92,29.88,10,8,0,16,3,21,0.01,2,Fog-Rain,191
2013-5-8,75,64,52,59,55,51,100,74,46,30.04,30.01,29.97,10,9,5,15,5,22,0.00,2,,196
2013-5-9,82,70,57,62,57,51,97,67,35,30.10,30.05,30.00,10,10,8,12,5,20,0.00,2,,270
2013-5-10,84,72,61,65,61,56,97,71,37,30.11,30.07,30.03,10,9,4,15,5,22,0.00,1,,189
2013-5-11,82,76,69,73,67,62,94,77,56,30.04,29.94,29.85,10,9,2,14,9,24,0.08,2,Rain-Thunderstorm,197
2013-5-12,80,72,64,67,57,45,96,62,32,30.01,29.88,29.81,10,10,6,15,8,22,0.00,4,Rain,299
2013-5-13,71,60,50,44,39,32,80,46,26,30.16,30.07,30.02,10,10,9,17,10,23,0.00,2,,350
2013-5-14,71,58,45,45,38,29,90,50,24,30.27,30.21,30.16,10,10,7,13,6,21,0.00,0,,304
2013-5-15,84,70,57,61,55,46,81,60,40,30.16,30.06,29.97,10,10,10,14,8,23,0.00,0,,212
2013-5-16,89,76,64,64,60,56,84,62,34,30.02,29.97,29.94,10,10,9,14,8,24,0.00,0,,242
2013-5-17,88,77,66,65,64,61,96,68,40,30.13,30.07,30.01,10,9,4,10,6,,0.00,0,,234
2013-5-18,82,73,66,70,66,59,97,77,60,30.19,30.16,30.13,10,9,2,12,5,20,0.13,2,Rain-Thunderstorm,184
2013-5-19,82,74,66,70,67,65,100,81,60,30.19,30.15,30.12,10,9,5,15,4,18,0.00,1,,165
2013-5-20,80,74,69,70,68,66,94,83,61,30.17,30.13,30.09,10,9,2,15,8,23,0.16,6,Rain,190
2013-5-21,82,76,70,73,70,67,97,86,65,30.10,30.07,30.02,10,8,1,16,7,22,0.47,4,Rain-Thunderstorm,198
2013-5-22,82,76,69,70,68,66,97,79,58,30.08,30.04,30.00,10,10,6,15,7,26,0.00,3,,184
2013-5-23,81,75,69,72,70,68,100,89,67,30.02,29.94,29.86,10,9,1,13,6,20,0.18,4,Rain,179
2013-5-24,79,69,59,70,59,39,100,72,40,30.17,29.92,29.80,10,9,6,23,6,30,0.00,3,,307
2013-5-25,73,62,50,51,41,37,90,53,28,30.29,30.20,30.15,10,10,10,15,8,22,0.00,0,,325
2013-5-26,73,62,53,54,50,46,93,69,40,30.27,30.22,30.18,10,10,9,8,3,,0.00,2,,310
2013-5-27,78,62,48,58,52,41,97,67,30,30.31,30.27,30.23,10,9,5,12,2,,0.00,0,,142
2013-5-28,82,69,57,67,62,56,97,76,50,30.30,30.26,30.23,10,10,4,15,3,,0.00,1,,161
2013-5-29,82,72,62,68,65,62,100,82,52,30.30,30.25,30.22,10,8,1,14,3,21,0.00,1,,188
2013-5-30,84,72,62,70,67,61,100,80,63,30.31,30.27,30.23,10,9,2,15,4,,0.00,2,,167
2013-5-31,84,74,64,71,67,64,100,88,49,30.26,30.22,30.17,10,6,0,14,2,,0.00,2,Fog,159